Time;durP1;ratioP1;P1;durP2;ratioP2;P2;SDS_P1;SDS_P2;PMS_P1;PMS_P2;Temp;Humidity;BMP_temperature;BMP_pressure;BME280_temperature;BME280_humidity;BME280_pressure;Samples;Min_cycle;Max_cycle;Signal;HPM_P1;HPM_P2
2022/10/27 00:01:14;;;;;;;;;;;16.20;91.00;;;;;;6129853;23;20261;-79
2022/10/27 00:03:41;;;;;;;;;;;16.20;91.00;;;;;;6130288;23;19921;-79
2022/10/27 00:06:08;;;;;;;;;;;16.20;91.10;;;;;;6129218;23;19995;-79
2022/10/27 00:08:35;;;;;;;;;;;16.10;91.30;;;;;;6129739;23;20393;-79
2022/10/27 00:11:03;;;;;;;;;;;16.10;91.30;;;;;;6143392;23;20004;-79
2022/10/27 00:13:30;;;;;;;;;;;16.10;91.60;;;;;;6154569;23;20356;-79
2022/10/27 00:15:58;;;;;;;;;;;16.10;91.50;;;;;;6155347;23;19995;-79
2022/10/27 00:18:25;;;;;;;;;;;16.10;91.30;;;;;;6154439;23;20008;-79
2022/10/27 00:21:01;;;;;;;;;;;16.10;91.40;;;;;;6153728;23;19927;-79
2022/10/27 00:23:28;;;;;;;;;;;16.10;91.30;;;;;;6154705;23;19991;-79
2022/10/27 00:25:54;;;;;;;;;;;16.00;91.20;;;;;;6154048;23;19999;-78
2022/10/27 00:28:21;;;;;;;;;;;16.00;90.70;;;;;;6154260;23;20405;-79
2022/10/27 00:30:57;;;;;;;;;;;16.00;90.80;;;;;;6154286;23;20329;-79
2022/10/27 00:33:23;;;;;;;;;;;16.00;90.90;;;;;;6155044;23;19921;-79
2022/10/27 00:35:50;;;;;;;;;;;16.00;90.70;;;;;;6154862;23;20333;-79
2022/10/27 00:38:17;;;;;;;;;;;16.00;90.70;;;;;;6153560;23;20345;-79
2022/10/27 00:40:43;;;;;;;;;;;16.00;91.10;;;;;;6154471;23;19927;-78
2022/10/27 00:43:28;;;;;;;;;;;15.90;91.20;;;;;;6153673;23;19991;-79
2022/10/27 00:45:59;;;;;;;;;;;15.90;91.30;;;;;;6153578;23;19936;-79
2022/10/27 00:48:27;;;;;;;;;;;15.90;91.60;;;;;;6154837;23;20252;-79
2022/10/27 00:50:53;;;;;;;;;;;15.80;92.00;;;;;;6153292;23;19927;-79
2022/10/27 00:53:20;;;;;;;;;;;15.70;92.40;;;;;;6154433;23;20004;-79
2022/10/27 00:55:47;;;;;;;;;;;15.80;91.70;;;;;;6154282;23;19956;-79
2022/10/27 00:58:15;;;;;;;;;;;15.80;91.50;;;;;;6154917;23;19921;-79
2022/10/27 01:00:42;;;;;;;;;;;15.80;91.60;;;;;;6154510;23;19927;-79
2022/10/27 01:03:11;;;;;;;;;;;15.80;91.20;;;;;;6153078;23;20349;-79
2022/10/27 01:05:38;;;;;;;;;;;15.80;91.00;;;;;;6155914;23;19920;-78
2022/10/27 01:08:06;;;;;;;;;;;15.80;91.30;;;;;;6153761;23;20239;-79
2022/10/27 01:10:33;;;;;;;;;;;15.70;91.30;;;;;;6153931;23;19927;-79
2022/10/27 01:13:00;;;;;;;;;;;15.70;91.30;;;;;;6154716;23;19931;-79
2022/10/27 01:15:39;;;;;;;;;;;15.70;91.30;;;;;;6154422;23;20250;-78
2022/10/27 01:18:38;;;;;;;;;;;15.60;91.30;;;;;;6153245;23;19924;-79
2022/10/27 01:21:05;;;;;;;;;;;15.60;91.20;;;;;;6104920;23;20022;-79
2022/10/27 01:23:44;;;;;;;;;;;15.70;90.90;;;;;;6154229;23;20309;-79
2022/10/27 01:26:11;;;;;;;;;;;15.70;90.70;;;;;;6154596;23;19921;-79
2022/10/27 01:28:53;;;;;;;;;;;15.70;90.30;;;;;;6155621;23;19995;-79
2022/10/27 01:31:25;;;;;;;;;;;15.80;90.00;;;;;;6153113;23;19924;-79
2022/10/27 01:34:02;;;;;;;;;;;15.80;89.70;;;;;;6154265;23;19996;-79
2022/10/27 01:36:39;;;;;;;;;;;15.90;88.50;;;;;;6154827;23;19956;-79
2022/10/27 01:39:23;;;;;;;;;;;15.90;88.10;;;;;;6154534;23;19942;-79
2022/10/27 01:41:53;;;;;;;;;;;15.90;87.10;;;;;;6154140;23;20028;-79
2022/10/27 01:44:23;;;;;;;;;;;16.00;87.20;;;;;;6153423;23;20304;-79
2022/10/27 01:46:51;;;;;;;;;;;15.90;86.60;;;;;;6154056;23;19996;-79
2022/10/27 01:49:19;;;;;;;;;;;15.90;86.30;;;;;;6152874;23;19921;-79
2022/10/27 01:51:47;;;;;;;;;;;15.90;86.60;;;;;;6153880;23;19921;-79
2022/10/27 01:54:15;;;;;;;;;;;15.90;87.20;;;;;;6153002;23;19996;-79
2022/10/27 01:56:48;;;;;;;;;;;15.80;87.60;;;;;;6155203;23;19924;-79
2022/10/27 01:59:14;;;;;;;;;;;15.80;87.30;;;;;;6152703;23;19927;-79
2022/10/27 02:01:55;;;;;;;;;;;15.80;87.40;;;;;;6153804;23;19921;-79
2022/10/27 02:04:24;;;;;;;;;;;15.80;88.10;;;;;;6154206;23;19920;-79
2022/10/27 02:06:55;;;;;;;;;;;15.70;88.90;;;;;;6153463;23;19921;-79
2022/10/27 02:09:22;;;;;;;;;;;15.70;88.30;;;;;;6152833;23;19995;-79
2022/10/27 02:11:51;;;;;;;;;;;15.70;88.60;;;;;;6153259;23;19988;-79
2022/10/27 02:14:18;;;;;;;;;;;15.70;88.40;;;;;;6152782;23;19999;-79
2022/10/27 02:16:48;;;;;;;;;;;15.70;89.10;;;;;;6153816;23;20346;-79
2022/10/27 02:19:17;;;;;;;;;;;15.60;89.70;;;;;;6152994;23;19927;-79
2022/10/27 02:21:45;;;;;;;;;;;15.60;90.30;;;;;;6153507;23;20345;-79
2022/10/27 02:24:12;;;;;;;;;;;15.60;90.00;;;;;;6152790;23;19927;-79
2022/10/27 02:26:42;;;;;;;;;;;15.50;90.50;;;;;;6153847;23;20381;-79
2022/10/27 02:29:25;;;;;;;;;;;15.40;90.20;;;;;;6152463;23;19927;-79
2022/10/27 02:31:53;;;;;;;;;;;15.40;90.30;;;;;;6153796;23;19995;-80
2022/10/27 02:34:21;;;;;;;;;;;15.40;90.20;;;;;;6152784;23;19925;-80
2022/10/27 02:36:47;;;;;;;;;;;15.40;90.60;;;;;;6153471;23;19930;-80
2022/10/27 02:39:14;;;;;;;;;;;15.30;91.10;;;;;;6152317;23;20278;-80
2022/10/27 02:41:40;;;;;;;;;;;15.30;91.10;;;;;;6153337;23;19921;-80
2022/10/27 02:44:07;;;;;;;;;;;15.20;91.30;;;;;;6152930;23;20260;-79
2022/10/27 02:46:34;;;;;;;;;;;15.20;91.00;;;;;;6152750;23;19995;-80
2022/10/27 02:49:01;;;;;;;;;;;15.30;91.10;;;;;;6153174;23;19959;-80
2022/10/27 02:51:30;;;;;;;;;;;15.20;91.20;;;;;;6152667;23;20226;-81
2022/10/27 02:53:57;;;;;;;;;;;15.20;90.90;;;;;;6153748;23;19921;-81
2022/10/27 02:56:24;;;;;;;;;;;15.30;90.70;;;;;;6153254;23;20342;-81
2022/10/27 02:58:50;;;;;;;;;;;15.30;90.80;;;;;;6154111;23;19971;-81
2022/10/27 03:01:17;;;;;;;;;;;15.20;91.00;;;;;;6152783;23;19921;-81
2022/10/27 03:03:44;;;;;;;;;;;15.20;90.90;;;;;;6153782;23;19925;-81
2022/10/27 03:06:10;;;;;;;;;;;15.20;91.30;;;;;;6152748;23;20011;-81
2022/10/27 03:08:37;;;;;;;;;;;15.20;91.20;;;;;;6153876;23;19920;-80
2022/10/27 03:11:04;;;;;;;;;;;15.10;91.10;;;;;;6153579;23;19948;-81
2022/10/27 03:13:31;;;;;;;;;;;15.10;91.10;;;;;;6152842;23;20358;-81
2022/10/27 03:15:57;;;;;;;;;;;15.10;91.20;;;;;;6153865;23;19940;-82
2022/10/27 03:18:24;;;;;;;;;;;15.20;91.00;;;;;;6152830;23;19925;-81
2022/10/27 03:20:51;;;;;;;;;;;15.20;90.90;;;;;;6153307;23;19995;-81
2022/10/27 03:23:17;;;;;;;;;;;15.20;91.10;;;;;;6153182;23;19927;-81
2022/10/27 03:25:44;;;;;;;;;;;15.20;91.00;;;;;;6153932;23;19956;-81
2022/10/27 03:28:14;;;;;;;;;;;15.20;91.00;;;;;;6154940;23;19925;-81
2022/10/27 03:30:41;;;;;;;;;;;15.10;91.20;;;;;;6155636;23;20364;-81
2022/10/27 03:33:07;;;;;;;;;;;15.10;91.20;;;;;;6155774;23;19995;-80
2022/10/27 03:35:34;;;;;;;;;;;15.00;91.30;;;;;;6155167;23;19999;-81
2022/10/27 03:38:01;;;;;;;;;;;15.00;91.80;;;;;;6155558;23;19921;-81
2022/10/27 03:40:28;;;;;;;;;;;14.90;91.80;;;;;;6155350;23;20004;-81
2022/10/27 03:42:58;;;;;;;;;;;14.90;92.10;;;;;;6155371;23;19920;-81
2022/10/27 03:45:25;;;;;;;;;;;14.80;92.30;;;;;;6156088;23;20008;-81
2022/10/27 03:48:02;;;;;;;;;;;14.80;92.30;;;;;;6155675;23;19932;-81
2022/10/27 03:50:29;;;;;;;;;;;14.80;92.40;;;;;;6154444;23;19924;-81
2022/10/27 03:52:56;;;;;;;;;;;14.80;92.20;;;;;;6155613;23;19921;-81
2022/10/27 03:55:22;;;;;;;;;;;14.80;92.40;;;;;;6154863;23;19920;-81
2022/10/27 03:57:49;;;;;;;;;;;14.70;92.60;;;;;;6154977;23;19931;-82
2022/10/27 04:00:16;;;;;;;;;;;14.70;92.60;;;;;;6154491;23;19956;-81
2022/10/27 04:02:43;;;;;;;;;;;14.70;92.60;;;;;;6155289;23;19926;-81
2022/10/27 04:05:10;;;;;;;;;;;14.80;92.10;;;;;;6155415;23;20155;-82
2022/10/27 04:07:36;;;;;;;;;;;14.70;92.00;;;;;;6154605;23;19928;-81
2022/10/27 04:10:03;;;;;;;;;;;14.80;91.80;;;;;;6156454;23;19927;-81
2022/10/27 04:12:30;;;;;;;;;;;14.80;91.50;;;;;;6129759;23;19925;-81
2022/10/27 04:14:57;;;;;;;;;;;14.80;91.90;;;;;;6130990;23;20002;-82
2022/10/27 04:17:23;;;;;;;;;;;14.70;91.60;;;;;;6155937;23;19921;-81
2022/10/27 04:19:50;;;;;;;;;;;14.80;91.70;;;;;;6130733;23;19930;-81
2022/10/27 04:22:17;;;;;;;;;;;14.70;91.80;;;;;;6129796;23;19960;-81
2022/10/27 04:24:44;;;;;;;;;;;14.70;91.60;;;;;;6130188;23;19924;-81
2022/10/27 04:27:10;;;;;;;;;;;14.70;91.40;;;;;;6130880;23;20008;-81
2022/10/27 04:29:38;;;;;;;;;;;14.70;91.30;;;;;;6155181;23;19948;-81
2022/10/27 04:32:04;;;;;;;;;;;14.80;91.30;;;;;;6130762;23;20258;-81
2022/10/27 04:34:31;;;;;;;;;;;14.80;91.20;;;;;;6129857;23;19996;-81
2022/10/27 04:36:58;;;;;;;;;;;14.70;91.30;;;;;;6156551;23;19955;-81
2022/10/27 04:39:25;;;;;;;;;;;14.70;91.70;;;;;;6129492;23;19925;-81
2022/10/27 04:41:51;;;;;;;;;;;14.70;91.60;;;;;;6130669;23;19936;-81
2022/10/27 04:44:18;;;;;;;;;;;14.70;91.30;;;;;;6129932;23;19960;-81
2022/10/27 04:46:45;;;;;;;;;;;14.70;91.20;;;;;;6130173;23;19944;-81
2022/10/27 04:49:11;;;;;;;;;;;14.70;91.00;;;;;;6131178;23;20256;-81
2022/10/27 04:51:38;;;;;;;;;;;14.70;91.30;;;;;;6129577;23;19941;-81
2022/10/27 04:54:05;;;;;;;;;;;14.70;91.20;;;;;;6130312;23;19995;-81
2022/10/27 04:56:31;;;;;;;;;;;14.60;91.00;;;;;;6129140;23;19928;-81
2022/10/27 04:58:58;;;;;;;;;;;14.60;91.20;;;;;;6129812;23;19920;-81
2022/10/27 05:01:25;;;;;;;;;;;14.60;92.10;;;;;;6129047;23;20000;-81
2022/10/27 05:03:52;;;;;;;;;;;14.50;92.40;;;;;;6130036;23;19982;-81
2022/10/27 05:06:18;;;;;;;;;;;14.30;93.40;;;;;;6155276;23;19927;-81
2022/10/27 05:08:45;;;;;;;;;;;14.30;93.10;;;;;;6130221;23;19920;-81
2022/10/27 05:11:12;;;;;;;;;;;14.30;93.00;;;;;;6146332;23;19920;-81
2022/10/27 05:13:42;;;;;;;;;;;14.30;92.80;;;;;;6154162;23;19944;-81
2022/10/27 05:16:09;;;;;;;;;;;14.40;92.50;;;;;;6154969;23;19927;-81
2022/10/27 05:18:35;;;;;;;;;;;14.40;92.30;;;;;;6154007;23;19967;-81
2022/10/27 05:21:02;;;;;;;;;;;14.40;92.40;;;;;;6154341;23;20000;-81
2022/10/27 05:23:29;;;;;;;;;;;14.40;92.20;;;;;;6153950;23;20511;-81
2022/10/27 05:25:55;;;;;;;;;;;14.40;92.00;;;;;;6154457;23;19999;-81
2022/10/27 05:28:22;;;;;;;;;;;14.40;91.60;;;;;;6152065;23;19920;-81
2022/10/27 05:30:49;;;;;;;;;;;14.50;91.50;;;;;;6152512;23;20003;-80
2022/10/27 05:33:16;;;;;;;;;;;14.40;91.70;;;;;;6153909;23;20341;-81
2022/10/27 05:35:44;;;;;;;;;;;14.40;91.40;;;;;;6151972;23;20239;-81
2022/10/27 05:38:11;;;;;;;;;;;14.50;91.50;;;;;;6152352;23;19999;-81
2022/10/27 05:40:38;;;;;;;;;;;14.40;91.40;;;;;;6151797;23;19921;-81
2022/10/27 05:43:04;;;;;;;;;;;14.40;91.60;;;;;;6152901;23;20012;-81
2022/10/27 05:45:31;;;;;;;;;;;14.40;91.70;;;;;;6152284;23;19959;-81
2022/10/27 05:47:58;;;;;;;;;;;14.30;91.50;;;;;;6153140;23;19992;-82
2022/10/27 05:50:26;;;;;;;;;;;14.40;91.30;;;;;;6152716;23;20377;-81
2022/10/27 05:52:52;;;;;;;;;;;14.40;91.40;;;;;;6153522;23;19921;-81
2022/10/27 05:55:20;;;;;;;;;;;14.40;91.20;;;;;;6152753;23;19925;-80
2022/10/27 05:57:54;;;;;;;;;;;14.40;91.20;;;;;;6153676;23;20620;-81
2022/10/27 06:00:22;;;;;;;;;;;14.50;91.00;;;;;;6152637;23;19995;-81
2022/10/27 06:02:49;;;;;;;;;;;14.40;90.70;;;;;;6152904;23;20368;-81
2022/10/27 06:05:16;;;;;;;;;;;14.40;90.80;;;;;;6153392;23;19929;-81
2022/10/27 06:07:42;;;;;;;;;;;14.40;90.60;;;;;;6152875;23;19925;-81
2022/10/27 06:10:09;;;;;;;;;;;14.40;90.80;;;;;;6153240;23;20256;-81
2022/10/27 06:12:36;;;;;;;;;;;14.40;90.70;;;;;;6152042;23;20000;-81
2022/10/27 06:15:03;;;;;;;;;;;14.40;90.90;;;;;;6153403;23;19925;-81
2022/10/27 06:17:30;;;;;;;;;;;14.40;90.70;;;;;;6152907;23;19944;-81
2022/10/27 06:19:56;;;;;;;;;;;14.40;90.60;;;;;;6152919;23;20342;-81
2022/10/27 06:22:23;;;;;;;;;;;14.40;90.60;;;;;;6151916;23;19997;-81
2022/10/27 06:24:50;;;;;;;;;;;14.40;90.40;;;;;;6152769;23;19927;-81
2022/10/27 06:27:17;;;;;;;;;;;14.50;90.00;;;;;;6153605;23;19924;-81
2022/10/27 06:29:44;;;;;;;;;;;14.50;90.00;;;;;;6151652;23;19920;-82
2022/10/27 06:32:10;;;;;;;;;;;14.50;88.70;;;;;;6152812;23;19921;-82
2022/10/27 06:34:37;;;;;;;;;;;14.60;88.50;;;;;;6151991;23;20256;-82
2022/10/27 06:37:04;;;;;;;;;;;14.60;88.60;;;;;;6152891;23;19972;-81
2022/10/27 06:39:31;;;;;;;;;;;14.60;88.90;;;;;;6151508;23;19951;-81
2022/10/27 06:41:58;;;;;;;;;;;14.60;89.20;;;;;;6153034;23;20397;-81
2022/10/27 06:44:24;;;;;;;;;;;14.60;87.40;;;;;;6152050;23;19945;-81
2022/10/27 06:46:51;;;;;;;;;;;14.70;87.00;;;;;;6152519;23;20003;-82
2022/10/27 06:49:18;;;;;;;;;;;14.70;88.00;;;;;;6151922;23;19943;-81
2022/10/27 06:51:45;;;;;;;;;;;14.60;88.60;;;;;;6152741;23;19952;-82
2022/10/27 06:54:11;;;;;;;;;;;14.60;88.50;;;;;;6151801;23;20337;-82
2022/10/27 06:56:38;;;;;;;;;;;14.60;88.40;;;;;;6152859;23;19948;-82
2022/10/27 06:59:05;;;;;;;;;;;14.60;88.90;;;;;;6153051;23;19996;-82
2022/10/27 07:01:31;;;;;;;;;;;14.60;88.60;;;;;;6152207;23;19929;-82
2022/10/27 07:03:58;;;;;;;;;;;14.60;88.10;;;;;;6153359;23;19920;-81
2022/10/27 07:06:25;;;;;;;;;;;14.70;87.90;;;;;;6153099;23;19920;-81
2022/10/27 07:08:52;;;;;;;;;;;14.70;88.40;;;;;;6153183;23;19947;-82
2022/10/27 07:11:18;;;;;;;;;;;14.70;86.30;;;;;;6152645;23;19927;-81
2022/10/27 07:13:45;;;;;;;;;;;14.90;86.60;;;;;;6153578;23;19966;-81
2022/10/27 07:16:12;;;;;;;;;;;15.00;85.30;;;;;;6152388;23;20256;-81
2022/10/27 07:18:38;;;;;;;;;;;15.20;81.10;;;;;;6154532;23;20012;-81
2022/10/27 07:21:05;;;;;;;;;;;15.40;80.30;;;;;;6152861;23;19927;-81
2022/10/27 07:23:32;;;;;;;;;;;15.60;79.50;;;;;;6152386;23;20005;-82
2022/10/27 07:25:59;;;;;;;;;;;15.90;78.80;;;;;;6153090;23;19926;-81
2022/10/27 07:28:25;;;;;;;;;;;16.00;76.70;;;;;;6151022;23;20406;-82
2022/10/27 07:30:53;;;;;;;;;;;16.20;74.30;;;;;;6152864;23;20009;-81
2022/10/27 07:33:20;;;;;;;;;;;16.40;73.90;;;;;;6151198;23;19991;-82
2022/10/27 07:35:48;;;;;;;;;;;16.50;73.30;;;;;;6152699;23;19925;-82
2022/10/27 07:38:14;;;;;;;;;;;16.60;71.90;;;;;;6151896;23;20000;-82
2022/10/27 07:40:41;;;;;;;;;;;16.80;71.50;;;;;;6153590;23;20308;-82
2022/10/27 07:43:08;;;;;;;;;;;16.90;69.40;;;;;;6153901;23;19989;-82
2022/10/27 07:45:36;;;;;;;;;;;17.10;70.20;;;;;;6151681;23;19991;-82
2022/10/27 07:48:03;;;;;;;;;;;17.30;69.60;;;;;;6152567;23;19973;-81
2022/10/27 07:50:32;;;;;;;;;;;17.30;67.50;;;;;;6150337;23;19948;-81
2022/10/27 07:53:00;;;;;;;;;;;17.40;68.00;;;;;;6152721;23;20258;-82
2022/10/27 07:55:27;;;;;;;;;;;17.60;67.50;;;;;;6151633;23;20256;-82
2022/10/27 07:57:58;;;;;;;;;;;17.70;68.60;;;;;;6152734;23;19924;-82
2022/10/27 08:00:25;;;;;;;;;;;17.80;68.40;;;;;;6151677;23;20337;-81
2022/10/27 08:02:52;;;;;;;;;;;17.90;65.90;;;;;;6153321;23;19927;-82
2022/10/27 08:05:19;;;;;;;;;;;18.00;66.50;;;;;;6152273;23;19987;-82
2022/10/27 08:07:45;;;;;;;;;;;18.10;64.80;;;;;;6153272;23;19927;-82
2022/10/27 08:10:12;;;;;;;;;;;18.20;63.60;;;;;;6154250;23;19999;-81
2022/10/27 08:12:43;;;;;;;;;;;18.20;63.30;;;;;;6154231;23;19931;-81
2022/10/27 08:15:10;;;;;;;;;;;18.30;62.80;;;;;;6130334;23;19956;-81
2022/10/27 08:17:37;;;;;;;;;;;18.30;62.30;;;;;;6155335;23;19952;-81
2022/10/27 08:20:05;;;;;;;;;;;18.40;63.00;;;;;;6130880;23;20299;-82
2022/10/27 08:22:32;;;;;;;;;;;18.60;63.50;;;;;;6129732;23;19931;-81
2022/10/27 08:24:59;;;;;;;;;;;18.80;63.10;;;;;;6130273;23;20349;-81
2022/10/27 08:27:28;;;;;;;;;;;18.90;61.90;;;;;;6130537;23;19920;-81
2022/10/27 08:29:54;;;;;;;;;;;18.90;62.80;;;;;;6129921;23;19924;-82
2022/10/27 08:32:22;;;;;;;;;;;19.10;62.40;;;;;;6128427;23;19960;-81
2022/10/27 08:34:49;;;;;;;;;;;19.10;63.10;;;;;;6129454;23;20333;-82
2022/10/27 08:37:17;;;;;;;;;;;19.20;61.80;;;;;;6128993;23;19920;-81
2022/10/27 08:39:44;;;;;;;;;;;19.40;60.50;;;;;;6128480;23;20368;-81
2022/10/27 08:42:31;;;;;;;;;;;19.50;60.60;;;;;;6129544;23;20230;-81
2022/10/27 08:45:08;;;;;;;;;;;19.40;60.00;;;;;;6116417;23;20337;-81
2022/10/27 08:47:35;;;;;;;;;;;19.60;61.30;;;;;;6128367;23;19931;-81
2022/10/27 08:50:13;;;;;;;;;;;19.60;60.50;;;;;;6129697;23;19955;-81
2022/10/27 08:52:42;;;;;;;;;;;19.70;61.20;;;;;;6128072;23;19952;-81
2022/10/27 08:55:12;;;;;;;;;;;19.80;62.00;;;;;;6129440;23;20361;-81
2022/10/27 08:57:41;;;;;;;;;;;19.90;61.30;;;;;;6128212;23;20003;-81
2022/10/27 09:00:11;;;;;;;;;;;20.10;60.70;;;;;;6128754;23;19947;-81
2022/10/27 09:02:40;;;;;;;;;;;20.00;60.40;;;;;;6128003;23;19940;-81
2022/10/27 09:05:19;;;;;;;;;;;20.10;59.20;;;;;;6129522;23;19920;-81
2022/10/27 09:07:49;;;;;;;;;;;20.20;59.70;;;;;;6128378;23;20317;-81
2022/10/27 09:10:22;;;;;;;;;;;20.30;60.40;;;;;;6133710;23;19921;-81
2022/10/27 09:12:59;;;;;;;;;;;20.20;60.80;;;;;;6153262;23;19952;-82
2022/10/27 09:15:25;;;;;;;;;;;20.30;59.40;;;;;;6154203;23;20341;-81
2022/10/27 09:17:52;;;;;;;;;;;20.40;62.00;;;;;;6153069;23;20253;-81
2022/10/27 09:20:35;;;;;;;;;;;20.50;61.40;;;;;;6152762;23;20014;-82
2022/10/27 09:23:03;;;;;;;;;;;20.50;61.50;;;;;;6153268;23;19931;-82
2022/10/27 09:25:36;;;;;;;;;;;20.60;61.50;;;;;;6153745;23;19968;-83
2022/10/27 09:28:04;;;;;;;;;;;20.70;59.30;;;;;;6153820;23;19920;-82
2022/10/27 09:30:33;;;;;;;;;;;20.80;59.40;;;;;;6154846;23;19940;-83
2022/10/27 09:33:00;;;;;;;;;;;20.90;57.70;;;;;;6152779;23;19979;-83
2022/10/27 09:35:27;;;;;;;;;;;21.00;58.60;;;;;;6155597;23;19956;-83
2022/10/27 09:37:56;;;;;;;;;;;21.10;59.80;;;;;;6154017;23;19971;-83
2022/10/27 09:40:24;;;;;;;;;;;21.20;58.90;;;;;;6155370;23;20253;-82
2022/10/27 09:42:53;;;;;;;;;;;21.10;59.90;;;;;;6154597;23;19967;-82
2022/10/27 09:45:21;;;;;;;;;;;21.20;59.20;;;;;;6155017;23;20266;-83
2022/10/27 09:47:49;;;;;;;;;;;21.20;59.10;;;;;;6153744;23;20003;-82
2022/10/27 09:50:35;;;;;;;;;;;21.20;58.50;;;;;;6154678;23;19920;-84
2022/10/27 09:53:03;;;;;;;;;;;21.30;57.50;;;;;;6153809;23;19940;-83
2022/10/27 09:55:48;;;;;;;;;;;21.30;57.20;;;;;;6154601;23;19924;-83
2022/10/27 09:58:15;;;;;;;;;;;21.40;56.50;;;;;;6154555;23;19992;-81
2022/10/27 10:00:43;;;;;;;;;;;21.20;58.90;;;;;;6154519;23;19924;-83
2022/10/27 10:03:19;;;;;;;;;;;21.40;57.70;;;;;;6152737;23;20401;-82
2022/10/27 10:05:56;;;;;;;;;;;21.50;57.60;;;;;;6153517;23;19948;-83
2022/10/27 10:08:24;;;;;;;;;;;21.70;56.90;;;;;;6154568;23;19920;-82
2022/10/27 10:10:58;;;;;;;;;;;21.70;57.30;;;;;;6152731;23;19991;-82
2022/10/27 10:13:26;;;;;;;;;;;21.80;57.60;;;;;;6154239;23;20234;-83
2022/10/27 10:16:13;;;;;;;;;;;21.90;58.90;;;;;;6153468;23;20012;-82
2022/10/27 10:18:42;;;;;;;;;;;22.00;58.30;;;;;;6152468;23;19931;-82
2022/10/27 10:21:10;;;;;;;;;;;21.40;63.40;;;;;;6153390;23;19924;-82
2022/10/27 10:23:40;;;;;;;;;;;21.30;63.40;;;;;;6152875;23;19921;-83
2022/10/27 10:26:14;;;;;;;;;;;21.40;64.00;;;;;;6152661;23;20018;-82
2022/10/27 10:28:41;;;;;;;;;;;21.40;63.20;;;;;;6152266;23;20000;-82
2022/10/27 10:31:10;;;;;;;;;;;21.60;63.20;;;;;;6153617;23;19952;-82
2022/10/27 10:33:38;;;;;;;;;;;21.80;64.00;;;;;;6151921;23;20368;-82
2022/10/27 10:36:23;;;;;;;;;;;21.70;64.10;;;;;;6153244;23;19921;-83
2022/10/27 10:38:51;;;;;;;;;;;21.80;62.20;;;;;;6151821;23;19927;-83
2022/10/27 10:41:21;;;;;;;;;;;21.90;61.30;;;;;;6153772;23;19920;-82
2022/10/27 10:44:06;;;;;;;;;;;21.80;62.20;;;;;;6153140;23;19952;-83
2022/10/27 10:46:34;;;;;;;;;;;21.90;62.20;;;;;;6153167;23;19935;-82
2022/10/27 10:49:01;;;;;;;;;;;22.00;60.50;;;;;;6154335;23;19999;-82
2022/10/27 10:51:33;;;;;;;;;;;22.00;60.00;;;;;;6152203;23;20007;-82
2022/10/27 10:54:02;;;;;;;;;;;22.20;59.40;;;;;;6152869;23;19947;-83
2022/10/27 10:56:30;;;;;;;;;;;22.40;58.80;;;;;;6152261;23;20003;-82
2022/10/27 10:59:02;;;;;;;;;;;22.60;57.60;;;;;;6153705;23;19995;-82
2022/10/27 11:01:51;;;;;;;;;;;22.30;61.50;;;;;;6152426;23;19947;-82
2022/10/27 11:04:20;;;;;;;;;;;22.30;61.00;;;;;;6152617;23;19931;-82
2022/10/27 11:07:20;;;;;;;;;;;22.30;55.00;;;;;;6150430;23;19928;-82
2022/10/27 11:09:46;;;;;;;;;;;22.50;56.10;;;;;;6102100;23;19924;-83
2022/10/27 11:12:21;;;;;;;;;;;22.80;55.20;;;;;;6127553;23;19927;-82
2022/10/27 11:14:48;;;;;;;;;;;22.20;60.30;;;;;;6126097;23;19932;-83
2022/10/27 11:17:21;;;;;;;;;;;22.00;62.60;;;;;;6129117;23;19955;-82
2022/10/27 11:19:49;;;;;;;;;;;21.90;62.20;;;;;;6127288;23;20020;-81
2022/10/27 11:22:24;;;;;;;;;;;22.20;62.70;;;;;;6129768;23;19942;-82
2022/10/27 11:24:51;;;;;;;;;;;22.10;62.60;;;;;;6128011;23;19932;-81
2022/10/27 11:27:36;;;;;;;;;;;22.10;63.00;;;;;;6128471;23;19927;-82
2022/10/27 11:30:16;;;;;;;;;;;22.40;61.40;;;;;;6129596;23;19920;-82
2022/10/27 11:32:48;;;;;;;;;;;22.30;61.70;;;;;;6129011;23;19952;-82
2022/10/27 11:35:25;;;;;;;;;;;22.10;63.20;;;;;;6130293;23;20297;-83
2022/10/27 11:37:56;;;;;;;;;;;22.50;63.60;;;;;;6154447;23;19928;-83
2022/10/27 11:40:43;;;;;;;;;;;22.70;61.70;;;;;;6130315;23;19995;-82
2022/10/27 11:43:14;;;;;;;;;;;22.90;61.30;;;;;;6129112;23;20293;-83
2022/10/27 11:45:50;;;;;;;;;;;22.90;60.30;;;;;;6129930;23;20308;-83
2022/10/27 11:48:21;;;;;;;;;;;23.10;60.30;;;;;;6130448;23;19940;-82
2022/10/27 11:50:53;;;;;;;;;;;23.30;60.10;;;;;;6156685;23;19925;-82
2022/10/27 11:53:20;;;;;;;;;;;22.80;58.40;;;;;;6131302;23;20249;-82
2022/10/27 11:55:53;;;;;;;;;;;22.50;61.50;;;;;;6131236;23;19920;-82
2022/10/27 11:58:25;;;;;;;;;;;22.90;60.10;;;;;;6130563;23;19955;-82
2022/10/27 12:01:03;;;;;;;;;;;22.70;60.50;;;;;;6131559;23;19996;-82
2022/10/27 12:03:30;;;;;;;;;;;23.00;59.90;;;;;;6154615;23;19999;-82
2022/10/27 12:06:04;;;;;;;;;;;23.20;58.90;;;;;;6155240;23;19924;-82
2022/10/27 12:08:46;;;;;;;;;;;23.30;58.90;;;;;;6130503;23;19951;-82
2022/10/27 12:11:19;;;;;;;;;;;23.50;57.90;;;;;;6148214;23;19944;-82
2022/10/27 12:14:02;;;;;;;;;;;23.30;59.90;;;;;;6156585;23;19963;-81
2022/10/27 12:16:47;;;;;;;;;;;23.00;60.80;;;;;;6154283;23;19948;-82
2022/10/27 12:19:17;;;;;;;;;;;22.30;63.70;;;;;;6154752;23;19939;-81
2022/10/27 12:21:53;;;;;;;;;;;22.50;64.90;;;;;;6155586;23;19931;-82
2022/10/27 12:24:33;;;;;;;;;;;23.00;63.00;;;;;;6154689;23;19959;-82
2022/10/27 12:27:04;;;;;;;;;;;22.80;63.30;;;;;;6156108;23;19995;-82
2022/10/27 12:29:34;;;;;;;;;;;23.10;61.80;;;;;;6154364;23;19925;-81
2022/10/27 12:32:20;;;;;;;;;;;23.30;61.20;;;;;;6155301;23;19943;-82
2022/10/27 12:34:54;;;;;;;;;;;23.00;62.50;;;;;;6154693;23;19947;-82
2022/10/27 12:37:24;;;;;;;;;;;23.10;61.40;;;;;;6155014;23;19956;-81
2022/10/27 12:39:59;;;;;;;;;;;22.60;62.00;;;;;;6155978;23;19920;-82
2022/10/27 12:42:52;;;;;;;;;;;22.80;62.70;;;;;;6155289;23;19991;-82
2022/10/27 12:45:29;;;;;;;;;;;22.80;62.50;;;;;;6110676;23;19921;-82
2022/10/27 12:48:02;;;;;;;;;;;23.20;62.20;;;;;;6154411;23;19925;-81
2022/10/27 12:50:38;;;;;;;;;;;22.90;62.30;;;;;;6155235;23;19921;-82
2022/10/27 12:53:04;;;;;;;;;;;22.70;62.40;;;;;;6154372;23;19995;-82
2022/10/27 12:55:44;;;;;;;;;;;23.20;61.30;;;;;;6155195;23;19987;-81
2022/10/27 12:58:16;;;;;;;;;;;23.30;60.90;;;;;;6154146;23;19987;-82
2022/10/27 13:00:48;;;;;;;;;;;23.00;60.60;;;;;;6154393;23;20004;-82
2022/10/27 13:03:15;;;;;;;;;;;23.20;61.70;;;;;;6154620;23;20334;-82
2022/10/27 13:05:48;;;;;;;;;;;23.20;61.10;;;;;;6155069;23;19936;-82
2022/10/27 13:08:26;;;;;;;;;;;23.00;61.10;;;;;;6154221;23;19924;-81
2022/10/27 13:10:59;;;;;;;;;;;23.20;60.70;;;;;;6154587;23;19921;-81
2022/10/27 13:13:38;;;;;;;;;;;23.00;60.60;;;;;;6155285;23;19927;-81
2022/10/27 13:16:09;;;;;;;;;;;23.30;61.90;;;;;;6153948;23;19921;-82
2022/10/27 13:18:40;;;;;;;;;;;23.50;59.50;;;;;;6154851;23;19992;-82
2022/10/27 13:21:33;;;;;;;;;;;23.70;60.80;;;;;;6153928;23;19920;-81
2022/10/27 13:24:00;;;;;;;;;;;24.10;59.60;;;;;;6121231;23;19925;-82
2022/10/27 13:26:46;;;;;;;;;;;24.20;57.10;;;;;;6153744;23;20316;-82
2022/10/27 13:29:17;;;;;;;;;;;24.30;56.40;;;;;;6153867;23;19920;-81
2022/10/27 13:32:03;;;;;;;;;;;24.30;56.30;;;;;;6154673;23;19963;-82
2022/10/27 13:34:30;;;;;;;;;;;24.30;56.40;;;;;;6153648;23;19951;-82
2022/10/27 13:37:23;;;;;;;;;;;24.10;55.90;;;;;;6154725;23;19920;-83
2022/10/27 13:39:50;;;;;;;;;;;24.10;56.10;;;;;;6120271;23;19992;-82
2022/10/27 13:42:17;;;;;;;;;;;24.30;55.70;;;;;;6154654;23;19924;-82
2022/10/27 13:44:46;;;;;;;;;;;24.20;55.50;;;;;;6154904;23;19999;-82
2022/10/27 13:47:14;;;;;;;;;;;24.20;56.30;;;;;;6154508;23;20000;-83
2022/10/27 13:49:42;;;;;;;;;;;24.20;54.60;;;;;;6153079;23;19928;-82
2022/10/27 13:52:08;;;;;;;;;;;24.20;56.30;;;;;;6154332;23;20404;-83
2022/10/27 13:54:47;;;;;;;;;;;23.70;57.80;;;;;;6153316;23;19940;-82
2022/10/27 13:57:32;;;;;;;;;;;23.60;58.60;;;;;;6154342;23;20234;-83
2022/10/27 14:00:09;;;;;;;;;;;23.70;59.00;;;;;;6153070;23;19925;-82
2022/10/27 14:02:43;;;;;;;;;;;23.80;57.50;;;;;;6153009;23;20330;-81
2022/10/27 14:05:28;;;;;;;;;;;23.80;58.00;;;;;;6154263;23;19920;-83
2022/10/27 14:07:55;;;;;;;;;;;23.70;56.70;;;;;;6153327;23;19953;-80
2022/10/27 14:10:23;;;;;;;;;;;23.70;57.10;;;;;;6153727;23;19921;-82
2022/10/27 14:12:50;;;;;;;;;;;23.70;56.80;;;;;;6153396;23;19995;-82
2022/10/27 14:15:23;;;;;;;;;;;23.70;57.20;;;;;;6153515;23;20338;-84
2022/10/27 14:17:51;;;;;;;;;;;23.70;57.00;;;;;;6153383;23;19928;-83
2022/10/27 14:20:21;;;;;;;;;;;23.20;57.90;;;;;;6153663;23;19931;-82
2022/10/27 14:22:49;;;;;;;;;;;22.90;59.00;;;;;;6153329;23;19987;-82
2022/10/27 14:25:16;;;;;;;;;;;22.80;59.60;;;;;;6153909;23;19932;-82
2022/10/27 14:27:43;;;;;;;;;;;22.90;59.90;;;;;;6154351;23;19929;-83
2022/10/27 14:30:12;;;;;;;;;;;23.00;59.50;;;;;;6153979;23;20308;-82
2022/10/27 14:32:39;;;;;;;;;;;23.10;58.90;;;;;;6152782;23;19924;-82